Karlovy Vary, Czech Republic

12:44 AM CEST on September 23, 2014 (GMT +0200)
IKARLOVA12 | Change Station
CLOSE
Current Station
Personal Weather Station
Location: Hroznetin, Karlovarsky kraj
Elevation: 1476 ft
Nearby Weather Stations

Elev 1476 ft 50.31 °N, 12.87 °E | Updated 3 minutes ago

Light Rain
Light Rain
47.1 °F
Feels Like 47 °F
N
3.0
Wind Variable Wind from WSW
Gusts 12.0 mph

Today
High -- | Low -- °F
--% Chance of Precip.
Yesterday
High -- | Low -- °F
Precip. -- in
6:55 AM 7:04 PM
Waning Crescent, 2% visible
Pressure 30.04 in
Visibility -9999.0 miles
Clouds Few 1200 ft
Scattered Clouds 1500 ft
Windchill 47 °F
Dew Point 45 °F
Humidity 92%
Rainfall 0.01 in
Snow Depth Not available.
UV 0 out of 12
Pollen Not available.
Air Quality Not available.
Flu Activity Not available.
METAR EDQM 222220Z AUTO 28009KT 4300NDV -RA FEW012/// SCT015/// 07/06 Q1017

More Conditions Fewer Conditions

Pressure 30.04 in
Visibility -9999.0 miles
Clouds Few 1200 ft
Scattered Clouds 1500 ft
Windchill 47 °F
Dew Point 45 °F
Humidity 92%
Rainfall 0.01 in
Snow Depth Not available.
UV 0 out of 12
Pollen Not available.
Air Quality Not available.
Flu Activity Not available.
METAR EDQM 222220Z AUTO 28009KT 4300NDV -RA FEW012/// SCT015/// 07/06 Q1017

More Conditions Fewer Conditions

10-Day Weather Forecast

Almanac

Astronomy

Sep. 23, 2014 Rise Set
Actual Time 6:55 AM CEST 7:04 PM CEST
Civil Twilight 6:23 AM CEST 7:37 PM CEST
Nautical Twilight 5:45 AM CEST 8:15 PM CEST
Astronomical Twilight 5:05 AM CEST 8:54 PM CEST
Moon 6:01 AM CEST (9/23) 6:34 PM CEST (9/23)
Length of Visible Light 13h 13m
Length of Day
12h 08m
Tomorrow will be 3m 44s shorter.
Waning Crescent, 2% of the Moon is Illuminated
Sep 22
Waning Crescent
Sep 24
New
Oct 1
First Quarter
Oct 8
Full
Oct 15
Last Quarter

Yesterday's Extremes

Country Highs Country Lows

Community

WunderPhotos

Upload Photos

1,755,545 photos uploaded!

Nearby

Snow Depth

Not available.

Earthquake Activity

City Distance Mag. Time & Date
No recent earthquake activity has been reported nearby.
Minimum magnitude displayed is 2.5.

Coastal Water Temperatures

Place Temperature
No Stations Reporting

Nearby Weather Stations